General Lucio Blanco International Airport


Codes: MMRX/REX
Name: General Lucio Blanco International Airport
City: Reynosa
Country: Mexico
Elevation: 139 ft.
Wikipedia:

Photos at General Lucio Blanco International Airport


   Photos courtesy of SpottingLog. You can add your own sightings and photos by signing up for a free trial today.



No photos found.

Weather at General Lucio Blanco International Airport


Time (UTC)DescriptionTempratureWindCloud coverageVisibilityPressureHumidity
19-Apr-2024 03:00Overcast Clouds27°C11 mph, SE100%10000m1012hPa69%
19-Apr-2024 06:00Overcast Clouds26°C16 mph, S100%10000m1012hPa74%
19-Apr-2024 09:00Broken Clouds24°C4 mph, SE77%10000m1012hPa85%
19-Apr-2024 12:00Broken Clouds23°C9 mph, E73%10000m1013hPa93%
19-Apr-2024 15:00Scattered Clouds28°C16 mph, SE41%10000m1014hPa68%
19-Apr-2024 18:00Few Clouds33°C16 mph, SE21%10000m1013hPa43%
19-Apr-2024 21:00Clear Sky34°C16 mph, SE0%10000m1010hPa39%
20-Apr-2024 00:00Clear Sky30°C16 mph, SE1%10000m1010hPa43%
20-Apr-2024 03:00Broken Clouds23°C11 mph, SE67%10000m1014hPa83%
20-Apr-2024 06:00Broken Clouds24°C7 mph, SE83%10000m1013hPa89%
20-Apr-2024 09:00Overcast Clouds24°C9 mph, SE99%10000m1012hPa93%
20-Apr-2024 12:00Light Rain24°C13 mph, SE99%10000m1012hPa92%
20-Apr-2024 15:00Light Rain27°C16 mph, SE98%10000m1013hPa75%
20-Apr-2024 18:00Light Rain32°C13 mph, SE81%10000m1012hPa50%
20-Apr-2024 21:00Overcast Clouds32°C11 mph, SE85%10000m1009hPa48%
21-Apr-2024 00:00Broken Clouds30°C13 mph, SE68%10000m1009hPa53%
21-Apr-2024 03:00Light Rain24°C11 mph, E48%10000m1011hPa82%
21-Apr-2024 06:00Moderate Rain22°C4 mph, SE41%10000m1013hPa95%
21-Apr-2024 09:00Light Rain22°C4 mph, NE36%10000m1013hPa97%
21-Apr-2024 12:00Broken Clouds23°C7 mph, NE56%10000m1014hPa93%
21-Apr-2024 15:00Light Rain26°C11 mph, NE99%10000m1016hPa76%
21-Apr-2024 18:00Light Rain25°C16 mph, N98%10000m1017hPa72%
21-Apr-2024 21:00Light Rain25°C18 mph, NE95%10000m1015hPa71%
22-Apr-2024 00:00Light Rain22°C16 mph, NE95%10000m1015hPa76%
22-Apr-2024 03:00Light Rain20°C13 mph, NE100%10000m1017hPa83%
22-Apr-2024 06:00Overcast Clouds21°C11 mph, NE100%10000m1017hPa80%
22-Apr-2024 09:00Light Rain21°C9 mph, NE100%10000m1016hPa83%
22-Apr-2024 12:00Light Rain20°C9 mph, NE100%10000m1016hPa85%
22-Apr-2024 15:00Moderate Rain21°C7 mph, NE100%7488m1017hPa86%
22-Apr-2024 18:00Moderate Rain20°C7 mph, NE100%10000m1017hPa91%
22-Apr-2024 21:00Light Rain21°C9 mph, E100%10000m1014hPa88%
23-Apr-2024 00:00Light Rain20°C9 mph, E100%10000m1013hPa91%
23-Apr-2024 03:00Light Rain20°C4 mph, NE100%10000m1015hPa92%
23-Apr-2024 06:00Overcast Clouds21°C7 mph, E100%10000m1014hPa94%
23-Apr-2024 09:00Light Rain21°C4 mph, E100%10000m1012hPa96%
23-Apr-2024 12:00Overcast Clouds21°C7 mph, E95%10000m1012hPa98%
23-Apr-2024 15:00Light Rain25°C9 mph, SE77%10000m1013hPa82%
23-Apr-2024 18:00Light Rain27°C11 mph, SE87%10000m1013hPa70%
23-Apr-2024 21:00Light Rain31°C9 mph, SE70%10000m1010hPa55%
24-Apr-2024 00:00Broken Clouds28°C9 mph, SE79%10000m1011hPa63%